createdAt,value
2019-03-17T00:01:57.711Z,97493.62
2019-03-17T00:04:31.764Z,97486.89
2019-03-17T00:06:58.750Z,97480.35
2019-03-17T00:09:28.279Z,97491.41
2019-03-17T00:11:57.746Z,97483.97
2019-03-17T00:14:27.285Z,97485.13
2019-03-17T00:16:56.802Z,97481.24
2019-03-17T00:19:27.638Z,97481.52
2019-03-17T00:21:57.307Z,97484.97
2019-03-17T00:24:26.820Z,97481.49
2019-03-17T00:26:56.311Z,97483.94
2019-03-17T00:29:25.777Z,97481.18
2019-03-17T00:31:55.318Z,97477.13
2019-03-17T00:34:25.045Z,97475.80
2019-03-17T00:36:54.570Z,97476.47
2019-03-17T00:39:45.023Z,97477.44
2019-03-17T00:42:14.501Z,97478.09
2019-03-17T00:44:43.992Z,97476.58
2019-03-17T00:47:13.518Z,97476.14
2019-03-17T00:49:42.988Z,97475.95
2019-03-17T00:52:12.469Z,97476.73
2019-03-17T00:54:41.963Z,97468.10
2019-03-17T00:57:11.429Z,97467.27
2019-03-17T00:59:40.908Z,97466.00
2019-03-17T01:02:10.426Z,97456.30
2019-03-17T01:04:39.896Z,97452.84
2019-03-17T01:07:09.393Z,97441.92
2019-03-17T01:09:38.903Z,97440.67
2019-03-17T01:12:08.392Z,97439.84
2019-03-17T01:14:37.873Z,97437.09
2019-03-17T01:17:07.411Z,97435.11
2019-03-17T01:19:36.897Z,97428.26
2019-03-17T01:22:06.345Z,97432.68
2019-03-17T01:24:35.817Z,97426.95
2019-03-17T01:27:05.465Z,97419.19
2019-03-17T01:29:34.931Z,97423.77
2019-03-17T01:32:05.946Z,97424.59
2019-03-17T01:34:35.579Z,97410.27
2019-03-17T01:37:05.125Z,97407.50
2019-03-17T01:39:34.801Z,97401.92
2019-03-17T01:42:04.524Z,97401.25
2019-03-17T01:44:34.014Z,97395.81
2019-03-17T01:47:22.812Z,97399.67
2019-03-17T01:49:57.988Z,97397.88
2019-03-17T01:52:27.440Z,97394.64
2019-03-17T01:55:16.616Z,97390.16
2019-03-17T01:57:46.091Z,97387.81
2019-03-17T02:00:15.615Z,97387.93
2019-03-17T02:02:45.124Z,97382.36
2019-03-17T02:05:21.827Z,97381.72
2019-03-17T02:07:45.877Z,97380.56
2019-03-17T02:10:15.349Z,97374.97
2019-03-17T02:12:44.880Z,97368.95
2019-03-17T02:15:33.805Z,97370.26
2019-03-17T02:18:03.292Z,97362.25
2019-03-17T02:20:33.421Z,97359.34
2019-03-17T02:23:02.937Z,97365.83
2019-03-17T02:25:51.733Z,97355.11
2019-03-17T02:28:21.244Z,97356.34
2019-03-17T02:30:50.724Z,97359.87
2019-03-17T02:33:20.185Z,97349.37
2019-03-17T02:35:49.837Z,97352.12
2019-03-17T02:38:19.318Z,97355.19
2019-03-17T02:40:48.864Z,97355.70
2019-03-17T02:43:18.372Z,97361.67
2019-03-17T02:45:47.838Z,97356.02
2019-03-17T02:48:17.332Z,97350.01
2019-03-17T02:50:46.812Z,97346.27
2019-03-17T02:53:16.364Z,97332.79
2019-03-17T02:55:45.858Z,97342.25
2019-03-17T02:58:15.368Z,97331.98
2019-03-17T03:00:44.863Z,97332.75
2019-03-17T03:03:14.320Z,97333.56
2019-03-17T03:05:54.679Z,97331.59
2019-03-17T03:08:16.501Z,97323.44
2019-03-17T03:10:46.163Z,97323.30
2019-03-17T03:13:17.190Z,97318.57
2019-03-17T03:15:46.666Z,97320.78
2019-03-17T03:18:16.154Z,97318.28
2019-03-17T03:21:05.010Z,97326.94
2019-03-17T03:23:34.468Z,97322.80
2019-03-17T03:26:04.035Z,97323.61
2019-03-17T03:28:52.859Z,97323.61
2019-03-17T03:31:22.351Z,97323.93
2019-03-17T03:33:51.829Z,97328.00
2019-03-17T03:36:22.284Z,97315.52
2019-03-17T03:38:51.746Z,97322.88
2019-03-17T03:41:21.232Z,97312.16
2019-03-17T03:44:10.058Z,97315.52
2019-03-17T03:46:39.513Z,97309.98
2019-03-17T03:49:08.993Z,97307.02
2019-03-17T03:51:38.465Z,97304.33
2019-03-17T03:54:07.959Z,97300.04
2019-03-17T03:56:37.414Z,97301.89
2019-03-17T03:59:06.911Z,97306.15
2019-03-17T04:01:55.707Z,97200.25
2019-03-17T04:04:25.580Z,97300.73
2019-03-17T04:06:55.064Z,97301.48
2019-03-17T04:09:24.546Z,97293.89
2019-03-17T04:11:54.021Z,97296.02
2019-03-17T04:14:23.473Z,97290.73
2019-03-17T04:16:52.929Z,97291.40
2019-03-17T04:19:22.487Z,97294.20
2019-03-17T04:21:51.968Z,97293.32
2019-03-17T04:24:22.927Z,97295.02
2019-03-17T04:26:52.455Z,97293.18
2019-03-17T04:29:21.937Z,97295.63
2019-03-17T04:31:51.423Z,97306.96
2019-03-17T04:34:20.948Z,97301.19
2019-03-17T04:36:51.709Z,97299.17
2019-03-17T04:39:21.180Z,97302.44
2019-03-17T04:41:50.658Z,97298.66
2019-03-17T04:44:21.292Z,97298.78
2019-03-17T04:46:50.817Z,97301.48
2019-03-17T04:49:20.356Z,97299.36
2019-03-17T04:51:49.813Z,97301.31
2019-03-17T04:54:19.305Z,97306.45
2019-03-17T04:56:48.871Z,97305.53
2019-03-17T04:59:37.631Z,97186.98
2019-03-17T05:02:07.099Z,97316.69
2019-03-17T05:04:36.596Z,97316.47
2019-03-17T05:07:06.080Z,97317.69
2019-03-17T05:09:35.573Z,97322.84
2019-03-17T05:12:05.314Z,97323.11
2019-03-17T05:14:34.799Z,97321.84
2019-03-17T05:17:04.285Z,97320.56
2019-03-17T05:19:33.938Z,97319.66
2019-03-17T05:22:03.492Z,97317.89
2019-03-17T05:24:33.006Z,97319.42
2019-03-17T05:27:02.455Z,97318.39
2019-03-17T05:29:31.922Z,97321.84
2019-03-17T05:32:01.406Z,97327.30
2019-03-17T05:34:31.040Z,97329.93
2019-03-17T05:37:06.117Z,97319.75
2019-03-17T05:39:37.533Z,97312.77
2019-03-17T05:42:06.993Z,97312.58
2019-03-17T05:44:36.477Z,97309.38
2019-03-17T05:47:06.034Z,97310.33
2019-03-17T05:49:38.052Z,97308.74
2019-03-17T05:52:07.549Z,97313.70
2019-03-17T05:54:39.956Z,97317.69
2019-03-17T05:57:09.418Z,97316.75
2019-03-17T05:59:38.899Z,97315.13
2019-03-17T06:02:08.395Z,97324.75
2019-03-17T06:04:37.924Z,97320.52
2019-03-17T06:07:18.220Z,97317.70
2019-03-17T06:09:44.325Z,97328.55
2019-03-17T06:12:13.850Z,97324.06
2019-03-17T06:14:43.334Z,97329.94
2019-03-17T06:17:12.884Z,97332.55
2019-03-17T06:19:42.371Z,97318.55
2019-03-17T06:22:11.829Z,97318.31
2019-03-17T06:24:41.320Z,97327.45
2019-03-17T06:27:10.798Z,97332.67
2019-03-17T06:29:40.253Z,97335.73
2019-03-17T06:32:09.767Z,97340.44
2019-03-17T06:34:39.258Z,97351.67
2019-03-17T06:37:09.213Z,97349.89
2019-03-17T06:39:38.695Z,97351.05
2019-03-17T06:42:08.166Z,97355.69
2019-03-17T06:44:37.644Z,97356.40
2019-03-17T06:47:07.303Z,97355.95
2019-03-17T06:49:36.769Z,97342.80
2019-03-17T06:52:06.255Z,97347.33
2019-03-17T06:54:36.123Z,97347.52
2019-03-17T06:57:24.919Z,97338.42
2019-03-17T07:00:14.563Z,97341.98
2019-03-17T07:02:44.099Z,97342.34
2019-03-17T07:05:15.255Z,97350.97
2019-03-17T07:07:44.984Z,97348.69
2019-03-17T07:10:16.380Z,97358.31
2019-03-17T07:12:45.906Z,97352.80
2019-03-17T07:15:15.414Z,97342.41
2019-03-17T07:17:44.884Z,97337.72
2019-03-17T07:20:15.385Z,97344.31
2019-03-17T07:22:45.033Z,97336.22
2019-03-17T07:25:14.512Z,97333.64
2019-03-17T07:27:43.969Z,97340.14
2019-03-17T07:30:16.600Z,97338.02
2019-03-17T07:32:46.120Z,97344.20
2019-03-17T07:35:15.754Z,97337.70
2019-03-17T07:37:56.363Z,97347.95
2019-03-17T07:40:17.355Z,97342.07
2019-03-17T07:43:06.152Z,97336.05
2019-03-17T07:45:35.618Z,97328.91
2019-03-17T07:48:05.261Z,97312.31
2019-03-17T07:50:35.006Z,97306.45
2019-03-17T07:53:04.555Z,97301.54
2019-03-17T07:55:34.011Z,97309.83
2019-03-17T07:58:03.524Z,97321.89
2019-03-17T08:00:33.002Z,97310.02
2019-03-17T08:03:02.488Z,97309.72
2019-03-17T08:05:31.994Z,97317.52
2019-03-17T08:08:09.328Z,97321.56
2019-03-17T08:10:32.684Z,97318.80
2019-03-17T08:13:21.516Z,97320.45
2019-03-17T08:15:50.975Z,97325.17
2019-03-17T08:18:20.432Z,97318.48
2019-03-17T08:20:49.927Z,97305.16
2019-03-17T08:23:19.418Z,97325.33
2019-03-17T08:25:48.907Z,97333.64
2019-03-17T08:28:18.388Z,97325.32
2019-03-17T08:30:53.110Z,97328.27
2019-03-17T08:33:38.655Z,97331.84
2019-03-17T08:36:08.181Z,97340.64
2019-03-17T08:38:38.019Z,97337.23
2019-03-17T08:41:07.502Z,97339.64
2019-03-17T08:43:36.985Z,97339.34
2019-03-17T08:46:06.463Z,97327.77
2019-03-17T08:48:36.055Z,97327.93
2019-03-17T08:51:05.534Z,97326.64
2019-03-17T08:53:35.068Z,97338.34
2019-03-17T08:56:04.836Z,97347.13
2019-03-17T08:58:34.322Z,97349.73
2019-03-17T09:01:03.879Z,97354.58
2019-03-17T09:03:33.392Z,97348.42
2019-03-17T09:06:02.856Z,97335.25
2019-03-17T09:08:35.364Z,97343.06
2019-03-17T09:11:03.570Z,97337.54
2019-03-17T09:13:33.054Z,97351.84
2019-03-17T09:16:02.513Z,97357.23
2019-03-17T09:18:31.920Z,97349.59
2019-03-17T09:21:01.389Z,97355.78
2019-03-17T09:23:30.859Z,97356.91
2019-03-17T09:26:19.681Z,97351.04
2019-03-17T09:28:49.167Z,97365.70
2019-03-17T09:31:18.691Z,97361.78
2019-03-17T09:33:48.567Z,97367.98
2019-03-17T09:36:18.094Z,97362.94
2019-03-17T09:38:47.894Z,97352.35
2019-03-17T09:41:21.365Z,97345.69
2019-03-17T09:43:50.824Z,97358.38
2019-03-17T09:46:20.745Z,97370.07
2019-03-17T09:48:50.614Z,97362.92
2019-03-17T09:51:23.106Z,97368.60
2019-03-17T09:53:52.665Z,97358.55
2019-03-17T09:56:22.165Z,97368.94
2019-03-17T09:58:51.648Z,97363.06
2019-03-17T10:01:21.129Z,97376.41
2019-03-17T10:03:50.624Z,97384.00
2019-03-17T10:06:20.091Z,97368.50
2019-03-17T10:08:59.510Z,97386.66
2019-03-17T10:11:20.790Z,97380.11
2019-03-17T10:13:50.269Z,97380.34
2019-03-17T10:16:19.761Z,97379.07
2019-03-17T10:18:49.503Z,97391.31
2019-03-17T10:21:18.962Z,97394.39
2019-03-17T10:23:48.441Z,97399.17
2019-03-17T10:26:17.945Z,97389.05
2019-03-17T10:28:47.401Z,97398.33
2019-03-17T10:31:16.918Z,97398.78
2019-03-17T10:33:46.439Z,97387.20
2019-03-17T10:36:15.916Z,97395.22
2019-03-17T10:38:45.369Z,97397.86
2019-03-17T10:41:14.845Z,97400.61
2019-03-17T10:43:44.349Z,97394.59
2019-03-17T10:46:13.898Z,97395.55
2019-03-17T10:48:43.367Z,97398.50
2019-03-17T10:51:12.848Z,97402.09
2019-03-17T10:53:42.337Z,97411.98
2019-03-17T10:56:11.801Z,97415.27
2019-03-17T10:58:41.279Z,97419.66
2019-03-17T11:01:10.742Z,97424.97
2019-03-17T11:03:40.227Z,97423.17
2019-03-17T11:06:09.880Z,97441.25
2019-03-17T11:08:39.365Z,97418.09
2019-03-17T11:11:11.914Z,97407.97
2019-03-17T11:13:40.043Z,97424.27
2019-03-17T11:16:09.537Z,97439.80
2019-03-17T11:18:39.067Z,97424.47
2019-03-17T11:21:08.551Z,97437.14
2019-03-17T11:23:38.071Z,97504.55
2019-03-17T11:26:07.909Z,97548.30
2019-03-17T11:28:37.387Z,97546.27
2019-03-17T11:31:06.936Z,97553.32
2019-03-17T11:33:36.426Z,97562.00
2019-03-17T11:36:06.041Z,97586.16
2019-03-17T11:38:35.501Z,97600.44
2019-03-17T11:41:04.997Z,97609.07
2019-03-17T11:43:35.984Z,97611.77
2019-03-17T11:46:05.751Z,97626.20
2019-03-17T11:48:35.354Z,97627.56
2019-03-17T11:51:06.494Z,97634.22
2019-03-17T11:53:55.278Z,97646.23
2019-03-17T11:56:24.740Z,97637.27
2019-03-17T11:58:54.203Z,97645.31
2019-03-17T12:01:43.006Z,97655.30
2019-03-17T12:04:12.480Z,97650.73
2019-03-17T12:06:41.939Z,97654.94
2019-03-17T12:09:11.452Z,97656.31
2019-03-17T12:12:00.210Z,97671.66
2019-03-17T12:14:29.708Z,97666.82
2019-03-17T12:16:59.260Z,97672.15
2019-03-17T12:19:28.716Z,97676.47
2019-03-17T12:22:08.520Z,97670.17
2019-03-17T12:24:29.400Z,97670.63
2019-03-17T12:26:58.868Z,97672.30
2019-03-17T12:29:28.381Z,97670.81
2019-03-17T12:31:57.853Z,97670.42
2019-03-17T12:34:28.436Z,97668.59
2019-03-17T12:36:58.317Z,97669.11
2019-03-17T12:39:27.916Z,97657.50
2019-03-17T12:41:57.384Z,97657.59
2019-03-17T12:44:26.955Z,97655.06
2019-03-17T12:46:57.953Z,97640.75
2019-03-17T12:49:27.429Z,97652.44
2019-03-17T12:51:57.334Z,97654.30
2019-03-17T12:54:46.132Z,97665.67
2019-03-17T12:57:15.620Z,97674.33
2019-03-17T12:59:45.072Z,97677.73
2019-03-17T13:02:14.566Z,97680.42
2019-03-17T13:04:44.066Z,97679.13
2019-03-17T13:07:13.555Z,97673.40
2019-03-17T13:09:43.029Z,97665.28
2019-03-17T13:12:12.537Z,97655.02
2019-03-17T13:14:42.088Z,97663.00
2019-03-17T13:17:11.547Z,97666.20
2019-03-17T13:19:41.074Z,97670.55
2019-03-17T13:22:10.549Z,97658.48
2019-03-17T13:24:40.012Z,97663.51
2019-03-17T13:27:09.509Z,97650.01
2019-03-17T13:29:38.958Z,97664.05
2019-03-17T13:32:08.425Z,97665.14
2019-03-17T13:34:37.999Z,97669.72
2019-03-17T13:37:09.000Z,97661.13
2019-03-17T13:39:38.475Z,97661.98
2019-03-17T13:42:07.968Z,97666.51
2019-03-17T13:44:37.595Z,97652.50
2019-03-17T13:47:07.087Z,97646.91
2019-03-17T13:49:36.560Z,97652.66
2019-03-17T13:52:06.039Z,97656.52
2019-03-17T13:54:35.585Z,97652.55
2019-03-17T13:57:05.351Z,97664.67
2019-03-17T13:59:34.822Z,97664.66
2019-03-17T14:02:05.808Z,97669.70
2019-03-17T14:04:41.242Z,97662.77
2019-03-17T14:07:10.722Z,97659.02
2019-03-17T14:09:40.175Z,97646.73
2019-03-17T14:12:09.685Z,97637.61
2019-03-17T14:14:39.135Z,97642.75
2019-03-17T14:17:08.598Z,97643.95
2019-03-17T14:19:38.064Z,97648.09
2019-03-17T14:22:07.540Z,97654.93
2019-03-17T14:24:37.094Z,97675.03
2019-03-17T14:27:06.755Z,97674.85
2019-03-17T14:29:36.251Z,97679.26
2019-03-17T14:32:07.239Z,97672.23
2019-03-17T14:34:36.912Z,97689.41
2019-03-17T14:37:06.405Z,97685.63
2019-03-17T14:39:35.924Z,97705.51
2019-03-17T14:42:05.601Z,97702.05
2019-03-17T14:44:35.076Z,97690.41
2019-03-17T14:47:05.915Z,97674.03
2019-03-17T14:49:35.611Z,97689.81
2019-03-17T14:52:24.396Z,97708.34
2019-03-17T14:54:53.905Z,97718.22
2019-03-17T14:57:23.347Z,97725.44
2019-03-17T14:59:52.803Z,97716.22
2019-03-17T15:02:22.280Z,97708.88
2019-03-17T15:04:53.441Z,97705.97
2019-03-17T15:07:22.902Z,97705.70
2019-03-17T15:09:52.412Z,97711.05
2019-03-17T15:12:21.898Z,97717.05
2019-03-17T15:14:51.448Z,97714.78
2019-03-17T15:17:20.954Z,97719.64
2019-03-17T15:19:50.395Z,97718.28
2019-03-17T15:22:19.876Z,97722.83
2019-03-17T15:24:49.381Z,97730.57
2019-03-17T15:27:18.835Z,97732.74
2019-03-17T15:29:48.331Z,97744.05
2019-03-17T15:32:18.087Z,97754.98
2019-03-17T15:34:47.545Z,97737.56
2019-03-17T15:37:17.095Z,97728.44
2019-03-17T15:39:46.627Z,97725.73
2019-03-17T15:42:16.086Z,97721.56
2019-03-17T15:44:45.582Z,97723.12
2019-03-17T15:47:15.261Z,97727.15
2019-03-17T15:49:44.720Z,97740.19
2019-03-17T15:52:14.179Z,97803.52
2019-03-17T15:54:43.702Z,97828.13
2019-03-17T15:57:13.166Z,97834.81
2019-03-17T15:59:42.622Z,97830.00
2019-03-17T16:02:12.188Z,97823.08
2019-03-17T16:04:41.665Z,97833.12
2019-03-17T16:07:11.121Z,97841.61
2019-03-17T16:09:40.627Z,97827.42
2019-03-17T16:12:10.096Z,97835.08
2019-03-17T16:14:39.570Z,97834.00
2019-03-17T16:17:09.119Z,97835.61
2019-03-17T16:19:38.661Z,97837.88
2019-03-17T16:22:07.979Z,97831.52
2019-03-17T16:24:37.487Z,97830.27
2019-03-17T16:27:26.260Z,97827.99
2019-03-17T16:30:18.112Z,97845.22
2019-03-17T16:32:48.067Z,97858.22
2019-03-17T16:35:17.667Z,97863.09
2019-03-17T16:37:47.855Z,97868.56
2019-03-17T16:40:21.353Z,97872.27
2019-03-17T16:42:53.575Z,97876.04
2019-03-17T16:45:22.637Z,97879.81
2019-03-17T16:47:53.866Z,97888.48
2019-03-17T16:50:24.455Z,97886.05
2019-03-17T16:53:13.273Z,97883.78
2019-03-17T16:55:44.435Z,97892.80
2019-03-17T16:58:13.920Z,97893.76
2019-03-17T17:00:43.629Z,97896.06
2019-03-17T17:03:13.079Z,97899.84
2019-03-17T17:05:42.557Z,97901.00
2019-03-17T17:08:12.058Z,97903.25
2019-03-17T17:10:49.999Z,97902.02
2019-03-17T17:13:12.704Z,97896.95
2019-03-17T17:15:42.240Z,97905.71
2019-03-17T17:18:30.997Z,97911.41
2019-03-17T17:21:00.513Z,97906.26
2019-03-17T17:23:29.970Z,97911.91
2019-03-17T17:25:59.453Z,97923.09
2019-03-17T17:28:28.958Z,97928.84
2019-03-17T17:30:58.437Z,97933.22
2019-03-17T17:33:28.109Z,97934.94
2019-03-17T17:35:57.696Z,97930.14
2019-03-17T17:38:27.262Z,97939.80
2019-03-17T17:40:56.715Z,97940.31
2019-03-17T17:43:26.202Z,97947.45
2019-03-17T17:45:55.656Z,97954.73
2019-03-17T17:48:25.322Z,97959.33
2019-03-17T17:50:54.819Z,97958.20
2019-03-17T17:53:24.339Z,97963.58
2019-03-17T17:55:53.803Z,97972.31
2019-03-17T17:58:23.320Z,97981.70
2019-03-17T18:00:52.797Z,97987.67
2019-03-17T18:03:22.255Z,97989.82
2019-03-17T18:05:51.752Z,97991.46
2019-03-17T18:08:21.301Z,98001.97
2019-03-17T18:11:10.113Z,98010.78
2019-03-17T18:13:39.601Z,98007.80
2019-03-17T18:16:09.079Z,98006.78
2019-03-17T18:18:38.776Z,98018.07
2019-03-17T18:21:27.572Z,97894.92
2019-03-17T18:23:57.071Z,98032.39
2019-03-17T18:26:26.551Z,98042.86
2019-03-17T18:28:56.024Z,98041.38
2019-03-17T18:31:25.535Z,98042.48
2019-03-17T18:33:55.011Z,98046.19
2019-03-17T18:36:24.505Z,98053.55
2019-03-17T18:38:54.105Z,98051.27
2019-03-17T18:41:23.576Z,98063.30
2019-03-17T18:43:53.046Z,98075.31
2019-03-17T18:46:22.555Z,98082.80
2019-03-17T18:48:52.208Z,98083.82
2019-03-17T18:51:21.659Z,98080.37
2019-03-17T18:53:51.236Z,98080.61
2019-03-17T18:56:20.713Z,98090.35
2019-03-17T18:58:50.190Z,98094.49
2019-03-17T19:01:20.137Z,98107.86
2019-03-17T19:03:49.595Z,98115.11
2019-03-17T19:06:19.077Z,98112.37
2019-03-17T19:08:48.571Z,98121.30
2019-03-17T19:11:18.054Z,98134.91
2019-03-17T19:13:47.512Z,98136.04
2019-03-17T19:16:17.012Z,98142.09
2019-03-17T19:18:46.501Z,98145.50
2019-03-17T19:21:15.958Z,98142.73
2019-03-17T19:23:45.671Z,98143.47
2019-03-17T19:26:15.152Z,98145.33
2019-03-17T19:28:44.637Z,98147.05
2019-03-17T19:31:14.148Z,98145.46
2019-03-17T19:33:43.633Z,98148.77
2019-03-17T19:36:13.116Z,98156.20
2019-03-17T19:38:42.592Z,98147.06
2019-03-17T19:41:12.079Z,98160.02
2019-03-17T19:43:41.574Z,98155.25
2019-03-17T19:46:11.118Z,98163.70
2019-03-17T19:48:40.418Z,98170.48
2019-03-17T19:51:09.896Z,98169.52
2019-03-17T19:53:39.440Z,98171.95
2019-03-17T19:56:08.895Z,98178.95
2019-03-17T19:58:40.594Z,98183.48
2019-03-17T20:01:09.720Z,98184.90
2019-03-17T20:03:39.181Z,98189.11
2019-03-17T20:06:10.705Z,98203.39
2019-03-17T20:08:40.093Z,98214.87
2019-03-17T20:11:09.625Z,98213.16
2019-03-17T20:13:39.075Z,98211.32
2019-03-17T20:16:08.550Z,98222.31
2019-03-17T20:18:47.048Z,98223.66
2019-03-17T20:21:16.679Z,98222.92
2019-03-17T20:23:46.137Z,98239.33
2019-03-17T20:26:18.276Z,98248.80
2019-03-17T20:28:47.928Z,98256.37
2019-03-17T20:31:17.531Z,98256.89
2019-03-17T20:33:46.995Z,98264.14
2019-03-17T20:36:16.471Z,98275.52
2019-03-17T20:38:45.952Z,98272.65
2019-03-17T20:41:15.441Z,98278.39
2019-03-17T20:43:45.618Z,98285.58
2019-03-17T20:46:15.073Z,98288.83
2019-03-17T20:48:44.541Z,98289.48
2019-03-17T20:51:14.194Z,98292.77
2019-03-17T20:53:43.662Z,98299.12
2019-03-17T20:56:13.125Z,98299.63
2019-03-17T20:58:42.642Z,98307.14
2019-03-17T21:01:12.104Z,98301.66
2019-03-17T21:03:43.072Z,98304.47
2019-03-17T21:06:18.516Z,98306.59
2019-03-17T21:08:52.404Z,98303.01
2019-03-17T21:11:21.915Z,98308.64
2019-03-17T21:13:51.405Z,98316.20
2019-03-17T21:16:20.886Z,98323.38
2019-03-17T21:18:50.343Z,98320.96
2019-03-17T21:21:19.815Z,98315.34
2019-03-17T21:23:49.294Z,98318.66
2019-03-17T21:26:18.817Z,98319.70
2019-03-17T21:28:48.265Z,98314.11
2019-03-17T21:31:17.745Z,98320.16
2019-03-17T21:33:47.202Z,98322.65
2019-03-17T21:36:16.715Z,98316.50
2019-03-17T21:38:46.155Z,98323.63
2019-03-17T21:41:15.613Z,98320.73
2019-03-17T21:43:45.402Z,98325.51
2019-03-17T21:46:14.867Z,98329.03
2019-03-17T21:48:44.319Z,98335.16
2019-03-17T21:51:14.033Z,98334.59
2019-03-17T21:53:43.446Z,98332.64
2019-03-17T21:56:12.926Z,98333.31
2019-03-17T21:59:01.760Z,98330.59
2019-03-17T22:01:31.214Z,98328.02
2019-03-17T22:04:00.669Z,98340.09
2019-03-17T22:06:30.162Z,98339.67
2019-03-17T22:09:01.915Z,98336.47
2019-03-17T22:11:31.011Z,98340.19
2019-03-17T22:14:11.606Z,98342.01
2019-03-17T22:16:31.800Z,98344.53
2019-03-17T22:19:01.266Z,98339.69
2019-03-17T22:21:30.824Z,98340.48
2019-03-17T22:24:00.312Z,98341.86
2019-03-17T22:26:32.458Z,98340.63
2019-03-17T22:29:04.252Z,98341.11
2019-03-17T22:31:33.741Z,98342.59
2019-03-17T22:34:03.171Z,98344.08
2019-03-17T22:36:33.028Z,98345.78
2019-03-17T22:39:05.080Z,98343.01
2019-03-17T22:41:33.706Z,98347.84
2019-03-17T22:44:03.202Z,98349.64
2019-03-17T22:46:32.670Z,98353.22
2019-03-17T22:49:02.128Z,98352.48
2019-03-17T22:51:31.808Z,98352.61
2019-03-17T22:54:01.261Z,98361.23
2019-03-17T22:56:30.711Z,98357.33
2019-03-17T22:59:00.274Z,98366.55
2019-03-17T23:01:29.927Z,98369.11
2019-03-17T23:03:59.417Z,98361.87
2019-03-17T23:06:28.889Z,98366.33
2019-03-17T23:08:58.371Z,98367.72
2019-03-17T23:11:27.836Z,98371.17
2019-03-17T23:13:57.356Z,98383.45
2019-03-17T23:16:26.844Z,98381.72
2019-03-17T23:18:56.301Z,98389.32
2019-03-17T23:21:27.329Z,98383.67
2019-03-17T23:24:02.728Z,98388.30
2019-03-17T23:26:32.233Z,98392.98
2019-03-17T23:29:02.702Z,98394.36
2019-03-17T23:31:44.873Z,98393.45
2019-03-17T23:34:14.324Z,98391.52
2019-03-17T23:36:43.779Z,98391.85
2019-03-17T23:39:13.491Z,98387.36
2019-03-17T23:41:43.024Z,98390.53
2019-03-17T23:44:12.770Z,98397.53
2019-03-17T23:46:42.759Z,98395.44
2019-03-17T23:49:12.405Z,98398.40
2019-03-17T23:51:42.352Z,98397.84
2019-03-17T23:54:11.852Z,98403.94
2019-03-17T23:56:41.346Z,98397.72
2019-03-17T23:59:10.792Z,98399.61
